sensor_id;sensor_type;location;lat;lon;timestamp;P1;durP1;ratioP1;P2;durP2;ratioP2
30635;SDS011;17400;52.392;9.750;2022-07-25T04:01:56;6.47;;;4.10;;
30635;SDS011;17400;52.392;9.750;2022-07-25T04:04:23;4.68;;;4.15;;
30635;SDS011;17400;52.392;9.750;2022-07-25T04:06:51;5.45;;;3.97;;
30635;SDS011;17400;52.392;9.750;2022-07-25T04:09:19;8.13;;;3.22;;
30635;SDS011;17400;52.392;9.750;2022-07-25T04:11:47;5.13;;;4.18;;
30635;SDS011;17400;52.392;9.750;2022-07-25T04:14:15;4.65;;;3.53;;
30635;SDS011;17400;52.392;9.750;2022-07-25T04:16:43;5.65;;;3.90;;
30635;SDS011;17400;52.392;9.750;2022-07-25T04:19:12;7.40;;;4.07;;
30635;SDS011;17400;52.392;9.750;2022-07-25T04:21:40;5.45;;;3.60;;
30635;SDS011;17400;52.392;9.750;2022-07-25T04:24:08;7.75;;;3.70;;
30635;SDS011;17400;52.392;9.750;2022-07-25T04:26:35;7.40;;;3.72;;
30635;SDS011;17400;52.392;9.750;2022-07-25T04:29:03;7.45;;;3.90;;
30635;SDS011;17400;52.392;9.750;2022-07-25T04:31:31;6.93;;;4.07;;
30635;SDS011;17400;52.392;9.750;2022-07-25T04:33:58;7.93;;;3.67;;
30635;SDS011;17400;52.392;9.750;2022-07-25T04:36:27;5.65;;;3.88;;
30635;SDS011;17400;52.392;9.750;2022-07-25T04:38:55;4.35;;;3.28;;
30635;SDS011;17400;52.392;9.750;2022-07-25T04:41:23;6.60;;;4.13;;
30635;SDS011;17400;52.392;9.750;2022-07-25T04:43:51;5.90;;;3.95;;
30635;SDS011;17400;52.392;9.750;2022-07-25T04:46:18;4.65;;;3.55;;
30635;SDS011;17400;52.392;9.750;2022-07-25T04:48:47;5.65;;;3.65;;
30635;SDS011;17400;52.392;9.750;2022-07-25T04:51:16;5.65;;;3.85;;
30635;SDS011;17400;52.392;9.750;2022-07-25T04:53:45;8.85;;;4.05;;
30635;SDS011;17400;52.392;9.750;2022-07-25T04:56:13;7.30;;;5.15;;
30635;SDS011;17400;52.392;9.750;2022-07-25T04:58:41;6.00;;;3.70;;
30635;SDS011;17400;52.392;9.750;2022-07-25T05:01:09;3.97;;;2.88;;
30635;SDS011;17400;52.392;9.750;2022-07-25T05:03:36;7.55;;;4.38;;
30635;SDS011;17400;52.392;9.750;2022-07-25T05:06:04;4.88;;;3.60;;
30635;SDS011;17400;52.392;9.750;2022-07-25T05:08:32;7.47;;;4.20;;
30635;SDS011;17400;52.392;9.750;2022-07-25T05:11:01;5.55;;;3.75;;
30635;SDS011;17400;52.392;9.750;2022-07-25T05:13:29;5.50;;;3.88;;
30635;SDS011;17400;52.392;9.750;2022-07-25T05:15:57;5.28;;;3.42;;
30635;SDS011;17400;52.392;9.750;2022-07-25T05:18:24;4.53;;;3.20;;
30635;SDS011;17400;52.392;9.750;2022-07-25T05:20:52;7.75;;;3.78;;
30635;SDS011;17400;52.392;9.750;2022-07-25T05:23:20;6.63;;;4.20;;
30635;SDS011;17400;52.392;9.750;2022-07-25T05:25:47;4.28;;;3.42;;
30635;SDS011;17400;52.392;9.750;2022-07-25T05:28:17;7.13;;;3.03;;
30635;SDS011;17400;52.392;9.750;2022-07-25T05:30:45;5.07;;;3.70;;
30635;SDS011;17400;52.392;9.750;2022-07-25T05:33:13;5.53;;;3.97;;
30635;SDS011;17400;52.392;9.750;2022-07-25T05:35:41;4.57;;;3.10;;
30635;SDS011;17400;52.392;9.750;2022-07-25T05:38:09;6.10;;;3.92;;
30635;SDS011;17400;52.392;9.750;2022-07-25T05:40:38;4.93;;;3.80;;
30635;SDS011;17400;52.392;9.750;2022-07-25T05:43:06;7.72;;;4.25;;
30635;SDS011;17400;52.392;9.750;2022-07-25T05:45:36;7.60;;;3.60;;
30635;SDS011;17400;52.392;9.750;2022-07-25T05:48:04;6.35;;;3.10;;
30635;SDS011;17400;52.392;9.750;2022-07-25T05:50:35;5.85;;;4.18;;
30635;SDS011;17400;52.392;9.750;2022-07-25T05:53:02;5.53;;;4.28;;
30635;SDS011;17400;52.392;9.750;2022-07-25T05:55:30;4.53;;;3.47;;
30635;SDS011;17400;52.392;9.750;2022-07-25T05:57:58;6.82;;;4.18;;
30635;SDS011;17400;52.392;9.750;2022-07-25T06:00:28;5.40;;;3.65;;
30635;SDS011;17400;52.392;9.750;2022-07-25T06:02:58;5.60;;;3.88;;
30635;SDS011;17400;52.392;9.750;2022-07-25T06:05:26;5.22;;;4.40;;
30635;SDS011;17400;52.392;9.750;2022-07-25T06:07:54;5.70;;;3.25;;
30635;SDS011;17400;52.392;9.750;2022-07-25T06:10:22;9.80;;;4.57;;
30635;SDS011;17400;52.392;9.750;2022-07-25T06:12:49;5.00;;;3.35;;
30635;SDS011;17400;52.392;9.750;2022-07-25T06:15:17;8.52;;;3.67;;
30635;SDS011;17400;52.392;9.750;2022-07-25T06:17:54;4.85;;;3.53;;
30635;SDS011;17400;52.392;9.750;2022-07-25T06:20:23;5.55;;;4.10;;
30635;SDS011;17400;52.392;9.750;2022-07-25T06:22:51;4.95;;;3.65;;
30635;SDS011;17400;52.392;9.750;2022-07-25T06:25:18;6.68;;;4.15;;
30635;SDS011;17400;52.392;9.750;2022-07-25T06:27:47;6.10;;;4.13;;
30635;SDS011;17400;52.392;9.750;2022-07-25T06:30:14;5.90;;;4.18;;
30635;SDS011;17400;52.392;9.750;2022-07-25T06:32:45;7.03;;;4.20;;
30635;SDS011;17400;52.392;9.750;2022-07-25T06:35:14;8.00;;;5.13;;
30635;SDS011;17400;52.392;9.750;2022-07-25T06:37:43;6.30;;;4.40;;
30635;SDS011;17400;52.392;9.750;2022-07-25T06:40:10;5.80;;;4.20;;
30635;SDS011;17400;52.392;9.750;2022-07-25T06:42:40;4.88;;;3.78;;
30635;SDS011;17400;52.392;9.750;2022-07-25T06:45:09;7.97;;;4.55;;
30635;SDS011;17400;52.392;9.750;2022-07-25T06:47:39;6.18;;;4.25;;
30635;SDS011;17400;52.392;9.750;2022-07-25T06:50:09;6.47;;;4.53;;
30635;SDS011;17400;52.392;9.750;2022-07-25T06:52:40;6.07;;;4.28;;
30635;SDS011;17400;52.392;9.750;2022-07-25T06:55:10;5.38;;;4.13;;
30635;SDS011;17400;52.392;9.750;2022-07-25T06:57:38;7.53;;;5.15;;
30635;SDS011;17400;52.392;9.750;2022-07-25T07:00:07;5.68;;;4.40;;
30635;SDS011;17400;52.392;9.750;2022-07-25T07:02:45;5.57;;;4.65;;
30635;SDS011;17400;52.392;9.750;2022-07-25T07:05:14;8.32;;;4.75;;
30635;SDS011;17400;52.392;9.750;2022-07-25T07:07:42;5.60;;;4.03;;
30635;SDS011;17400;52.392;9.750;2022-07-25T07:10:15;6.05;;;4.55;;
30635;SDS011;17400;52.392;9.750;2022-07-25T07:12:43;5.50;;;4.47;;
30635;SDS011;17400;52.392;9.750;2022-07-25T07:15:11;7.05;;;5.03;;
30635;SDS011;17400;52.392;9.750;2022-07-25T07:17:39;7.57;;;4.10;;
30635;SDS011;17400;52.392;9.750;2022-07-25T07:20:07;7.82;;;4.63;;
30635;SDS011;17400;52.392;9.750;2022-07-25T07:22:42;7.05;;;5.22;;
30635;SDS011;17400;52.392;9.750;2022-07-25T07:25:12;10.63;;;5.05;;
30635;SDS011;17400;52.392;9.750;2022-07-25T07:27:45;7.53;;;4.40;;
30635;SDS011;17400;52.392;9.750;2022-07-25T07:30:13;7.70;;;5.53;;
30635;SDS011;17400;52.392;9.750;2022-07-25T07:32:49;6.43;;;4.63;;
30635;SDS011;17400;52.392;9.750;2022-07-25T07:35:17;5.90;;;4.80;;
30635;SDS011;17400;52.392;9.750;2022-07-25T07:37:45;5.78;;;5.18;;
30635;SDS011;17400;52.392;9.750;2022-07-25T07:40:14;5.45;;;4.15;;
30635;SDS011;17400;52.392;9.750;2022-07-25T07:42:46;7.75;;;5.28;;
30635;SDS011;17400;52.392;9.750;2022-07-25T07:45:16;7.88;;;4.47;;
30635;SDS011;17400;52.392;9.750;2022-07-25T07:47:44;6.20;;;5.03;;
30635;SDS011;17400;52.392;9.750;2022-07-25T07:50:14;7.13;;;5.10;;
30635;SDS011;17400;52.392;9.750;2022-07-25T07:52:43;6.25;;;4.55;;
30635;SDS011;17400;52.392;9.750;2022-07-25T07:55:11;5.95;;;4.90;;
30635;SDS011;17400;52.392;9.750;2022-07-25T07:57:58;5.68;;;4.78;;
30635;SDS011;17400;52.392;9.750;2022-07-25T08:00:26;5.93;;;5.15;;
30635;SDS011;17400;52.392;9.750;2022-07-25T08:02:56;6.25;;;5.30;;
30635;SDS011;17400;52.392;9.750;2022-07-25T08:05:26;7.93;;;5.47;;
30635;SDS011;17400;52.392;9.750;2022-07-25T08:07:55;7.00;;;5.53;;
30635;SDS011;17400;52.392;9.750;2022-07-25T08:10:25;6.97;;;5.32;;
30635;SDS011;17400;52.392;9.750;2022-07-25T08:12:54;7.70;;;4.80;;
30635;SDS011;17400;52.392;9.750;2022-07-25T08:15:23;8.52;;;4.68;;
30635;SDS011;17400;52.392;9.750;2022-07-25T08:17:52;7.93;;;5.38;;
30635;SDS011;17400;52.392;9.750;2022-07-25T08:20:20;7.00;;;4.55;;
30635;SDS011;17400;52.392;9.750;2022-07-25T08:23:03;6.55;;;5.13;;
30635;SDS011;17400;52.392;9.750;2022-07-25T08:25:31;7.47;;;5.30;;
30635;SDS011;17400;52.392;9.750;2022-07-25T08:27:59;7.05;;;5.28;;
30635;SDS011;17400;52.392;9.750;2022-07-25T08:30:28;8.40;;;6.32;;
30635;SDS011;17400;52.392;9.750;2022-07-25T08:32:56;7.90;;;5.70;;
30635;SDS011;17400;52.392;9.750;2022-07-25T08:35:26;8.02;;;5.88;;
30635;SDS011;17400;52.392;9.750;2022-07-25T08:37:54;7.15;;;5.65;;
30635;SDS011;17400;52.392;9.750;2022-07-25T08:40:23;6.75;;;4.88;;
30635;SDS011;17400;52.392;9.750;2022-07-25T08:42:52;5.53;;;4.65;;
30635;SDS011;17400;52.392;9.750;2022-07-25T08:45:21;6.93;;;4.85;;
30635;SDS011;17400;52.392;9.750;2022-07-25T08:47:51;7.20;;;5.97;;
30635;SDS011;17400;52.392;9.750;2022-07-25T08:50:21;10.85;;;5.85;;
30635;SDS011;17400;52.392;9.750;2022-07-25T08:52:50;9.32;;;6.45;;
30635;SDS011;17400;52.392;9.750;2022-07-25T08:55:38;6.95;;;5.22;;
30635;SDS011;17400;52.392;9.750;2022-07-25T08:58:09;5.75;;;4.75;;
30635;SDS011;17400;52.392;9.750;2022-07-25T09:00:37;7.45;;;5.80;;
30635;SDS011;17400;52.392;9.750;2022-07-25T09:03:07;10.25;;;6.20;;
30635;SDS011;17400;52.392;9.750;2022-07-25T09:05:36;8.15;;;5.57;;
30635;SDS011;17400;52.392;9.750;2022-07-25T09:08:06;6.30;;;4.75;;
30635;SDS011;17400;52.392;9.750;2022-07-25T09:10:36;8.57;;;6.00;;
30635;SDS011;17400;52.392;9.750;2022-07-25T09:13:09;6.82;;;5.68;;
30635;SDS011;17400;52.392;9.750;2022-07-25T09:15:40;6.97;;;5.43;;
30635;SDS011;17400;52.392;9.750;2022-07-25T09:18:14;6.13;;;4.97;;
30635;SDS011;17400;52.392;9.750;2022-07-25T09:20:43;10.82;;;6.22;;
30635;SDS011;17400;52.392;9.750;2022-07-25T09:23:12;7.45;;;5.60;;
30635;SDS011;17400;52.392;9.750;2022-07-25T09:25:41;7.72;;;6.43;;
30635;SDS011;17400;52.392;9.750;2022-07-25T09:28:10;8.82;;;6.00;;
30635;SDS011;17400;52.392;9.750;2022-07-25T09:30:40;9.52;;;6.90;;
30635;SDS011;17400;52.392;9.750;2022-07-25T09:33:21;6.80;;;5.38;;
30635;SDS011;17400;52.392;9.750;2022-07-25T09:35:50;10.43;;;5.75;;
30635;SDS011;17400;52.392;9.750;2022-07-25T09:38:19;13.95;;;6.45;;
30635;SDS011;17400;52.392;9.750;2022-07-25T09:40:55;16.58;;;7.68;;
30635;SDS011;17400;52.392;9.750;2022-07-25T09:43:34;9.48;;;5.10;;
30635;SDS011;17400;52.392;9.750;2022-07-25T09:46:02;9.23;;;5.63;;
30635;SDS011;17400;52.392;9.750;2022-07-25T09:48:32;14.93;;;6.00;;
30635;SDS011;17400;52.392;9.750;2022-07-25T09:51:00;8.88;;;6.18;;
30635;SDS011;17400;52.392;9.750;2022-07-25T09:53:29;9.35;;;6.68;;
30635;SDS011;17400;52.392;9.750;2022-07-25T09:55:57;8.07;;;5.97;;
30635;SDS011;17400;52.392;9.750;2022-07-25T09:58:25;9.32;;;5.65;;
30635;SDS011;17400;52.392;9.750;2022-07-25T10:00:54;7.43;;;5.30;;
30635;SDS011;17400;52.392;9.750;2022-07-25T10:03:28;6.88;;;5.72;;
30635;SDS011;17400;52.392;9.750;2022-07-25T10:06:14;5.97;;;5.05;;
30635;SDS011;17400;52.392;9.750;2022-07-25T10:08:47;7.50;;;5.47;;
30635;SDS011;17400;52.392;9.750;2022-07-25T10:11:19;8.63;;;5.72;;
30635;SDS011;17400;52.392;9.750;2022-07-25T10:13:48;6.63;;;5.10;;
30635;SDS011;17400;52.392;9.750;2022-07-25T10:16:17;7.20;;;5.90;;
30635;SDS011;17400;52.392;9.750;2022-07-25T10:18:50;6.63;;;5.47;;
30635;SDS011;17400;52.392;9.750;2022-07-25T10:21:19;6.07;;;5.15;;
30635;SDS011;17400;52.392;9.750;2022-07-25T10:23:57;6.65;;;4.82;;
30635;SDS011;17400;52.392;9.750;2022-07-25T10:26:26;6.55;;;5.05;;
30635;SDS011;17400;52.392;9.750;2022-07-25T10:28:54;6.25;;;5.40;;
30635;SDS011;17400;52.392;9.750;2022-07-25T10:31:22;8.40;;;5.82;;
30635;SDS011;17400;52.392;9.750;2022-07-25T10:33:55;10.30;;;6.07;;
30635;SDS011;17400;52.392;9.750;2022-07-25T10:36:25;8.70;;;6.53;;
30635;SDS011;17400;52.392;9.750;2022-07-25T10:38:56;6.90;;;5.35;;
30635;SDS011;17400;52.392;9.750;2022-07-25T10:41:27;6.97;;;5.80;;
30635;SDS011;17400;52.392;9.750;2022-07-25T10:43:56;7.25;;;5.55;;
30635;SDS011;17400;52.392;9.750;2022-07-25T10:46:27;9.20;;;7.00;;
30635;SDS011;17400;52.392;9.750;2022-07-25T10:49:02;7.70;;;5.63;;
30635;SDS011;17400;52.392;9.750;2022-07-25T10:51:33;9.07;;;5.70;;
30635;SDS011;17400;52.392;9.750;2022-07-25T10:54:11;6.75;;;5.35;;
30635;SDS011;17400;52.392;9.750;2022-07-25T10:56:49;9.18;;;6.38;;
30635;SDS011;17400;52.392;9.750;2022-07-25T10:59:28;7.03;;;4.53;;
30635;SDS011;17400;52.392;9.750;2022-07-25T11:01:58;6.80;;;5.75;;
30635;SDS011;17400;52.392;9.750;2022-07-25T11:04:27;8.68;;;6.45;;
30635;SDS011;17400;52.392;9.750;2022-07-25T11:06:55;7.50;;;6.18;;
30635;SDS011;17400;52.392;9.750;2022-07-25T11:09:24;8.07;;;7.03;;
30635;SDS011;17400;52.392;9.750;2022-07-25T11:11:54;7.65;;;6.07;;
30635;SDS011;17400;52.392;9.750;2022-07-25T11:14:24;9.20;;;7.03;;
30635;SDS011;17400;52.392;9.750;2022-07-25T11:16:56;8.52;;;6.90;;
30635;SDS011;17400;52.392;9.750;2022-07-25T11:19:25;7.57;;;5.85;;
30635;SDS011;17400;52.392;9.750;2022-07-25T11:21:55;8.45;;;6.15;;
30635;SDS011;17400;52.392;9.750;2022-07-25T11:24:32;8.27;;;6.43;;
30635;SDS011;17400;52.392;9.750;2022-07-25T11:27:01;8.90;;;6.95;;
30635;SDS011;17400;52.392;9.750;2022-07-25T11:29:37;5.63;;;4.82;;
30635;SDS011;17400;52.392;9.750;2022-07-25T11:32:06;8.52;;;6.15;;
30635;SDS011;17400;52.392;9.750;2022-07-25T11:34:36;6.10;;;5.28;;
30635;SDS011;17400;52.392;9.750;2022-07-25T11:37:08;6.65;;;5.65;;
30635;SDS011;17400;52.392;9.750;2022-07-25T11:39:40;7.43;;;5.85;;
30635;SDS011;17400;52.392;9.750;2022-07-25T11:42:11;7.20;;;5.43;;
30635;SDS011;17400;52.392;9.750;2022-07-25T11:44:42;6.35;;;5.10;;
30635;SDS011;17400;52.392;9.750;2022-07-25T11:47:24;6.80;;;5.20;;
30635;SDS011;17400;52.392;9.750;2022-07-25T11:49:54;7.18;;;5.82;;
30635;SDS011;17400;52.392;9.750;2022-07-25T11:52:25;7.50;;;5.97;;
30635;SDS011;17400;52.392;9.750;2022-07-25T11:54:56;7.65;;;6.13;;
30635;SDS011;17400;52.392;9.750;2022-07-25T11:57:25;10.23;;;5.93;;
30635;SDS011;17400;52.392;9.750;2022-07-25T11:59:55;11.13;;;6.78;;
30635;SDS011;17400;52.392;9.750;2022-07-25T12:02:26;6.88;;;5.30;;
30635;SDS011;17400;52.392;9.750;2022-07-25T12:04:58;6.50;;;5.85;;
30635;SDS011;17400;52.392;9.750;2022-07-25T12:07:42;7.03;;;5.53;;
30635;SDS011;17400;52.392;9.750;2022-07-25T12:10:13;6.57;;;5.85;;
30635;SDS011;17400;52.392;9.750;2022-07-25T12:12:43;12.40;;;5.63;;
30635;SDS011;17400;52.392;9.750;2022-07-25T12:15:14;8.18;;;6.38;;
30635;SDS011;17400;52.392;9.750;2022-07-25T12:17:44;10.25;;;6.00;;
30635;SDS011;17400;52.392;9.750;2022-07-25T12:20:13;10.30;;;6.50;;
30635;SDS011;17400;52.392;9.750;2022-07-25T12:22:43;8.65;;;6.32;;
30635;SDS011;17400;52.392;9.750;2022-07-25T12:25:12;7.30;;;6.38;;
30635;SDS011;17400;52.392;9.750;2022-07-25T12:27:39;9.13;;;6.55;;
30635;SDS011;17400;52.392;9.750;2022-07-25T12:30:08;7.15;;;5.82;;
30635;SDS011;17400;52.392;9.750;2022-07-25T12:32:37;7.53;;;6.10;;
30635;SDS011;17400;52.392;9.750;2022-07-25T12:35:07;8.63;;;6.97;;
30635;SDS011;17400;52.392;9.750;2022-07-25T12:37:37;8.88;;;5.25;;
30635;SDS011;17400;52.392;9.750;2022-07-25T12:40:07;8.07;;;5.63;;
30635;SDS011;17400;52.392;9.750;2022-07-25T12:42:36;7.80;;;6.13;;
30635;SDS011;17400;52.392;9.750;2022-07-25T12:45:04;10.27;;;5.68;;
30635;SDS011;17400;52.392;9.750;2022-07-25T12:47:33;7.55;;;5.72;;
30635;SDS011;17400;52.392;9.750;2022-07-25T12:50:02;8.60;;;6.00;;
30635;SDS011;17400;52.392;9.750;2022-07-25T12:52:31;7.30;;;6.38;;
30635;SDS011;17400;52.392;9.750;2022-07-25T12:54:59;7.35;;;6.22;;
30635;SDS011;17400;52.392;9.750;2022-07-25T12:57:28;7.95;;;6.43;;
30635;SDS011;17400;52.392;9.750;2022-07-25T12:59:56;13.07;;;6.30;;
30635;SDS011;17400;52.392;9.750;2022-07-25T13:02:24;7.30;;;5.35;;
30635;SDS011;17400;52.392;9.750;2022-07-25T13:04:51;7.22;;;5.18;;
30635;SDS011;17400;52.392;9.750;2022-07-25T13:07:19;8.00;;;5.38;;
30635;SDS011;17400;52.392;9.750;2022-07-25T13:09:47;8.65;;;6.28;;
30635;SDS011;17400;52.392;9.750;2022-07-25T13:12:14;7.57;;;5.68;;
30635;SDS011;17400;52.392;9.750;2022-07-25T13:14:44;8.38;;;6.55;;
30635;SDS011;17400;52.392;9.750;2022-07-25T13:17:12;8.52;;;6.43;;
30635;SDS011;17400;52.392;9.750;2022-07-25T13:19:40;9.35;;;6.80;;
30635;SDS011;17400;52.392;9.750;2022-07-25T13:22:07;9.43;;;6.80;;
30635;SDS011;17400;52.392;9.750;2022-07-25T13:24:35;6.47;;;5.13;;
30635;SDS011;17400;52.392;9.750;2022-07-25T13:27:04;7.78;;;6.38;;
30635;SDS011;17400;52.392;9.750;2022-07-25T13:29:32;8.27;;;6.20;;
30635;SDS011;17400;52.392;9.750;2022-07-25T13:32:02;7.95;;;5.50;;
30635;SDS011;17400;52.392;9.750;2022-07-25T13:34:31;12.13;;;6.97;;
30635;SDS011;17400;52.392;9.750;2022-07-25T13:36:59;8.30;;;6.53;;
30635;SDS011;17400;52.392;9.750;2022-07-25T13:39:26;8.45;;;6.32;;
30635;SDS011;17400;52.392;9.750;2022-07-25T13:41:54;8.13;;;5.68;;
30635;SDS011;17400;52.392;9.750;2022-07-25T13:44:22;9.27;;;6.32;;
30635;SDS011;17400;52.392;9.750;2022-07-25T13:46:49;8.93;;;6.38;;
30635;SDS011;17400;52.392;9.750;2022-07-25T13:49:18;5.50;;;4.78;;
30635;SDS011;17400;52.392;9.750;2022-07-25T13:51:46;8.18;;;6.22;;
30635;SDS011;17400;52.392;9.750;2022-07-25T13:54:14;8.98;;;6.35;;
30635;SDS011;17400;52.392;9.750;2022-07-25T13:56:41;9.05;;;6.55;;
30635;SDS011;17400;52.392;9.750;2022-07-25T13:59:09;8.70;;;6.28;;
30635;SDS011;17400;52.392;9.750;2022-07-25T14:01:45;9.15;;;6.82;;
30635;SDS011;17400;52.392;9.750;2022-07-25T14:04:13;10.65;;;6.25;;
30635;SDS011;17400;52.392;9.750;2022-07-25T14:06:42;7.72;;;5.65;;
30635;SDS011;17400;52.392;9.750;2022-07-25T14:09:10;8.15;;;6.45;;
30635;SDS011;17400;52.392;9.750;2022-07-25T14:11:38;8.27;;;6.05;;
30635;SDS011;17400;52.392;9.750;2022-07-25T14:14:06;8.18;;;6.50;;
30635;SDS011;17400;52.392;9.750;2022-07-25T14:16:33;7.43;;;6.30;;
30635;SDS011;17400;52.392;9.750;2022-07-25T14:19:01;7.40;;;5.93;;
30635;SDS011;17400;52.392;9.750;2022-07-25T14:21:29;7.45;;;6.40;;
30635;SDS011;17400;52.392;9.750;2022-07-25T14:23:58;8.35;;;6.25;;
30635;SDS011;17400;52.392;9.750;2022-07-25T14:26:26;11.07;;;5.80;;
30635;SDS011;17400;52.392;9.750;2022-07-25T14:28:56;6.35;;;5.47;;
30635;SDS011;17400;52.392;9.750;2022-07-25T14:31:24;7.43;;;6.35;;
30635;SDS011;17400;52.392;9.750;2022-07-25T14:33:52;11.05;;;5.80;;
30635;SDS011;17400;52.392;9.750;2022-07-25T14:36:20;9.15;;;5.68;;
30635;SDS011;17400;52.392;9.750;2022-07-25T14:38:48;7.72;;;6.47;;
30635;SDS011;17400;52.392;9.750;2022-07-25T14:41:16;7.72;;;6.60;;
30635;SDS011;17400;52.392;9.750;2022-07-25T14:43:44;8.32;;;6.35;;
30635;SDS011;17400;52.392;9.750;2022-07-25T14:46:12;9.38;;;6.28;;
30635;SDS011;17400;52.392;9.750;2022-07-25T14:48:40;10.02;;;6.20;;
30635;SDS011;17400;52.392;9.750;2022-07-25T14:51:07;8.18;;;6.38;;
30635;SDS011;17400;52.392;9.750;2022-07-25T14:53:36;9.05;;;7.10;;
30635;SDS011;17400;52.392;9.750;2022-07-25T14:56:04;8.32;;;7.13;;
30635;SDS011;17400;52.392;9.750;2022-07-25T14:58:34;8.07;;;6.30;;
30635;SDS011;17400;52.392;9.750;2022-07-25T15:01:03;7.75;;;5.80;;
30635;SDS011;17400;52.392;9.750;2022-07-25T15:03:31;9.30;;;6.15;;
30635;SDS011;17400;52.392;9.750;2022-07-25T15:05:59;8.32;;;6.90;;
30635;SDS011;17400;52.392;9.750;2022-07-25T15:08:27;7.25;;;6.18;;
30635;SDS011;17400;52.392;9.750;2022-07-25T15:10:55;9.18;;;6.38;;
30635;SDS011;17400;52.392;9.750;2022-07-25T15:13:22;9.20;;;5.25;;
30635;SDS011;17400;52.392;9.750;2022-07-25T15:15:59;11.05;;;6.38;;
30635;SDS011;17400;52.392;9.750;2022-07-25T15:18:30;10.73;;;6.60;;
30635;SDS011;17400;52.392;9.750;2022-07-25T15:21:17;9.20;;;7.03;;
30635;SDS011;17400;52.392;9.750;2022-07-25T15:23:45;11.15;;;6.38;;
30635;SDS011;17400;52.392;9.750;2022-07-25T15:26:13;8.35;;;5.22;;
30635;SDS011;17400;52.392;9.750;2022-07-25T15:28:40;6.97;;;5.45;;
30635;SDS011;17400;52.392;9.750;2022-07-25T15:31:09;6.38;;;4.85;;
30635;SDS011;17400;52.392;9.750;2022-07-25T15:33:37;7.63;;;5.57;;
30635;SDS011;17400;52.392;9.750;2022-07-25T15:36:05;6.32;;;4.30;;
30635;SDS011;17400;52.392;9.750;2022-07-25T15:38:33;6.65;;;4.97;;
30635;SDS011;17400;52.392;9.750;2022-07-25T15:41:01;7.10;;;5.50;;
30635;SDS011;17400;52.392;9.750;2022-07-25T15:43:30;8.02;;;6.15;;
30635;SDS011;17400;52.392;9.750;2022-07-25T15:45:59;8.00;;;6.03;;
30635;SDS011;17400;52.392;9.750;2022-07-25T15:48:28;8.65;;;6.82;;
30635;SDS011;17400;52.392;9.750;2022-07-25T15:50:56;11.57;;;7.18;;
30635;SDS011;17400;52.392;9.750;2022-07-25T15:53:25;10.00;;;6.60;;
30635;SDS011;17400;52.392;9.750;2022-07-25T15:55:55;10.85;;;8.20;;
30635;SDS011;17400;52.392;9.750;2022-07-25T15:58:22;11.38;;;7.65;;
30635;SDS011;17400;52.392;9.750;2022-07-25T16:00:52;9.30;;;7.78;;
30635;SDS011;17400;52.392;9.750;2022-07-25T16:03:20;13.23;;;7.03;;
30635;SDS011;17400;52.392;9.750;2022-07-25T16:05:49;10.07;;;7.10;;
30635;SDS011;17400;52.392;9.750;2022-07-25T16:08:17;11.05;;;7.00;;
30635;SDS011;17400;52.392;9.750;2022-07-25T16:10:45;10.00;;;6.85;;
30635;SDS011;17400;52.392;9.750;2022-07-25T16:13:12;10.50;;;7.43;;
30635;SDS011;17400;52.392;9.750;2022-07-25T16:15:40;10.18;;;6.82;;
30635;SDS011;17400;52.392;9.750;2022-07-25T16:18:08;9.27;;;6.65;;
30635;SDS011;17400;52.392;9.750;2022-07-25T16:20:36;7.75;;;6.35;;
30635;SDS011;17400;52.392;9.750;2022-07-25T16:23:05;9.50;;;6.22;;
30635;SDS011;17400;52.392;9.750;2022-07-25T16:25:33;7.65;;;6.43;;
30635;SDS011;17400;52.392;9.750;2022-07-25T16:28:00;11.18;;;6.38;;
30635;SDS011;17400;52.392;9.750;2022-07-25T16:30:28;10.00;;;6.25;;
30635;SDS011;17400;52.392;9.750;2022-07-25T16:32:56;8.85;;;6.07;;
30635;SDS011;17400;52.392;9.750;2022-07-25T16:35:25;6.28;;;5.38;;
30635;SDS011;17400;52.392;9.750;2022-07-25T16:37:52;8.32;;;6.03;;
30635;SDS011;17400;52.392;9.750;2022-07-25T16:40:21;8.68;;;6.57;;
30635;SDS011;17400;52.392;9.750;2022-07-25T16:42:55;8.85;;;5.65;;
30635;SDS011;17400;52.392;9.750;2022-07-25T16:45:24;7.57;;;4.97;;
30635;SDS011;17400;52.392;9.750;2022-07-25T16:47:53;5.68;;;4.72;;
30635;SDS011;17400;52.392;9.750;2022-07-25T16:50:20;5.65;;;4.70;;
30635;SDS011;17400;52.392;9.750;2022-07-25T16:52:48;11.10;;;5.20;;
30635;SDS011;17400;52.392;9.750;2022-07-25T16:55:16;6.55;;;4.05;;
30635;SDS011;17400;52.392;9.750;2022-07-25T16:57:45;4.95;;;4.10;;
30635;SDS011;17400;52.392;9.750;2022-07-25T17:00:12;5.40;;;3.70;;
30635;SDS011;17400;52.392;9.750;2022-07-25T17:02:40;5.32;;;3.50;;
30635;SDS011;17400;52.392;9.750;2022-07-25T17:05:09;7.15;;;3.67;;
30635;SDS011;17400;52.392;9.750;2022-07-25T17:07:37;6.13;;;3.72;;
30635;SDS011;17400;52.392;9.750;2022-07-25T17:10:06;6.43;;;4.53;;
30635;SDS011;17400;52.392;9.750;2022-07-25T17:12:34;7.57;;;3.92;;
30635;SDS011;17400;52.392;9.750;2022-07-25T17:15:04;5.88;;;4.28;;
30635;SDS011;17400;52.392;9.750;2022-07-25T17:17:33;5.10;;;3.88;;
30635;SDS011;17400;52.392;9.750;2022-07-25T17:20:01;5.70;;;3.35;;
30635;SDS011;17400;52.392;9.750;2022-07-25T17:22:29;8.05;;;5.10;;
30635;SDS011;17400;52.392;9.750;2022-07-25T17:24:57;7.00;;;3.97;;
30635;SDS011;17400;52.392;9.750;2022-07-25T17:27:24;5.80;;;4.00;;
30635;SDS011;17400;52.392;9.750;2022-07-25T17:29:52;6.72;;;3.97;;
30635;SDS011;17400;52.392;9.750;2022-07-25T17:32:21;7.95;;;3.80;;
30635;SDS011;17400;52.392;9.750;2022-07-25T17:34:55;6.47;;;3.92;;
30635;SDS011;17400;52.392;9.750;2022-07-25T17:37:23;5.00;;;3.33;;
30635;SDS011;17400;52.392;9.750;2022-07-25T17:39:53;7.20;;;3.40;;
30635;SDS011;17400;52.392;9.750;2022-07-25T17:42:21;5.00;;;4.07;;
30635;SDS011;17400;52.392;9.750;2022-07-25T17:44:49;5.65;;;4.00;;
30635;SDS011;17400;52.392;9.750;2022-07-25T17:47:17;4.70;;;3.92;;
30635;SDS011;17400;52.392;9.750;2022-07-25T17:49:46;5.88;;;3.72;;
30635;SDS011;17400;52.392;9.750;2022-07-25T17:52:14;5.32;;;4.00;;
30635;SDS011;17400;52.392;9.750;2022-07-25T17:54:43;6.20;;;2.95;;
30635;SDS011;17400;52.392;9.750;2022-07-25T17:57:10;4.53;;;2.75;;
30635;SDS011;17400;52.392;9.750;2022-07-25T17:59:38;3.88;;;2.75;;
30635;SDS011;17400;52.392;9.750;2022-07-25T18:02:06;3.63;;;2.50;;
30635;SDS011;17400;52.392;9.750;2022-07-25T18:04:34;10.05;;;4.10;;
30635;SDS011;17400;52.392;9.750;2022-07-25T18:07:04;3.38;;;2.47;;
30635;SDS011;17400;52.392;9.750;2022-07-25T18:09:32;4.90;;;2.75;;
30635;SDS011;17400;52.392;9.750;2022-07-25T18:11:59;4.43;;;2.78;;
30635;SDS011;17400;52.392;9.750;2022-07-25T18:14:28;7.80;;;3.22;;
30635;SDS011;17400;52.392;9.750;2022-07-25T18:16:56;4.15;;;2.55;;
30635;SDS011;17400;52.392;9.750;2022-07-25T18:19:24;2.90;;;2.58;;
30635;SDS011;17400;52.392;9.750;2022-07-25T18:21:52;5.63;;;2.83;;
30635;SDS011;17400;52.392;9.750;2022-07-25T18:24:21;11.95;;;3.10;;
30635;SDS011;17400;52.392;9.750;2022-07-25T18:26:54;2.90;;;2.60;;
30635;SDS011;17400;52.392;9.750;2022-07-25T18:29:22;4.75;;;2.90;;
30635;SDS011;17400;52.392;9.750;2022-07-25T18:31:49;3.78;;;2.45;;
30635;SDS011;17400;52.392;9.750;2022-07-25T18:34:17;5.43;;;2.97;;
30635;SDS011;17400;52.392;9.750;2022-07-25T18:36:45;4.35;;;2.67;;
30635;SDS011;17400;52.392;9.750;2022-07-25T18:39:13;7.03;;;3.00;;
30635;SDS011;17400;52.392;9.750;2022-07-25T18:41:42;4.78;;;3.10;;
30635;SDS011;17400;52.392;9.750;2022-07-25T18:44:09;2.95;;;2.65;;
30635;SDS011;17400;52.392;9.750;2022-07-25T18:46:37;3.90;;;2.60;;
30635;SDS011;17400;52.392;9.750;2022-07-25T18:49:06;5.68;;;2.65;;
30635;SDS011;17400;52.392;9.750;2022-07-25T18:51:34;3.67;;;2.60;;
30635;SDS011;17400;52.392;9.750;2022-07-25T18:54:01;4.82;;;2.20;;
30635;SDS011;17400;52.392;9.750;2022-07-25T18:56:30;4.78;;;2.50;;
30635;SDS011;17400;52.392;9.750;2022-07-25T18:58:59;3.95;;;2.60;;